Time,TemperatureF,DewpointF,PressureIn,WindDirection,WindDirectionDegrees,WindSpeedMPH,WindSpeedGustMPH,Humidity,HourlyPrecipIn,Conditions,Clouds,dailyrainin,SoftwareType,DateUTC
2013-02-25 00:13:00,33.0,33.0,29.80,NNW,330,9.0,14.0,98,0.00,,,0.13,weatherlink.com 1.10,2013-02-25 05:13:00,
2013-02-25 00:28:00,33.1,33.0,29.81,NW,315,11.0,14.0,98,0.01,,,0.14,weatherlink.com 1.10,2013-02-25 05:28:00,
2013-02-25 00:43:00,33.2,33.0,29.81,NW,311,13.0,13.0,98,0.01,,,0.14,weatherlink.com 1.10,2013-02-25 05:43:00,
2013-02-25 00:58:00,33.2,33.0,29.82,WNW,302,10.0,14.0,97,0.01,,,0.14,weatherlink.com 1.10,2013-02-25 05:58:00,
2013-02-25 01:13:00,33.3,33.0,29.83,NW,323,10.0,15.0,97,0.02,,,0.15,weatherlink.com 1.10,2013-02-25 06:13:00,
2013-02-25 01:28:00,33.3,33.0,29.83,NW,309,6.0,17.0,97,0.01,,,0.15,weatherlink.com 1.10,2013-02-25 06:28:00,
2013-02-25 01:43:00,33.2,33.0,29.83,NW,314,10.0,11.0,97,0.01,,,0.15,weatherlink.com 1.10,2013-02-25 06:43:00,
2013-02-25 01:58:00,33.1,32.0,29.83,NNW,338,8.0,12.0,97,0.02,,,0.16,weatherlink.com 1.10,2013-02-25 06:58:00,
2013-02-25 02:13:00,33.1,32.0,29.83,NW,319,8.0,12.0,97,0.01,,,0.16,weatherlink.com 1.10,2013-02-25 07:13:00,
2013-02-25 02:29:00,33.0,32.0,29.83,NNW,327,7.0,12.0,97,0.01,,,0.16,weatherlink.com 1.10,2013-02-25 07:29:00,
2013-02-25 02:43:00,32.8,32.0,29.84,NW,314,9.0,13.0,97,0.01,,,0.16,weatherlink.com 1.10,2013-02-25 07:43:00,
2013-02-25 02:58:00,32.7,32.0,29.84,North,352,8.0,15.0,97,0.00,,,0.16,weatherlink.com 1.10,2013-02-25 07:58:00,
2013-02-25 03:13:00,32.7,32.0,29.85,NNW,327,8.0,18.0,97,0.00,,,0.16,weatherlink.com 1.10,2013-02-25 08:13:00,
2013-02-25 03:28:00,32.6,32.0,29.86,NW,319,11.0,16.0,97,0.00,,,0.16,weatherlink.com 1.10,2013-02-25 08:28:00,
2013-02-25 03:43:00,32.6,32.0,29.86,NNW,348,11.0,19.0,97,0.00,,,0.16,weatherlink.com 1.10,2013-02-25 08:43:00,
2013-02-25 03:58:00,32.7,32.0,29.87,NNW,333,12.0,17.0,96,0.00,,,0.16,weatherlink.com 1.10,2013-02-25 08:58:00,
2013-02-25 04:14:00,32.6,32.0,29.88,NW,312,13.0,16.0,96,0.00,,,0.16,weatherlink.com 1.10,2013-02-25 09:14:00,
2013-02-25 04:29:00,32.7,32.0,29.89,NW,323,13.0,18.0,96,0.00,,,0.16,weatherlink.com 1.10,2013-02-25 09:29:00,
2013-02-25 04:44:00,32.8,32.0,29.90,NNW,330,12.0,21.0,96,0.00,,,0.16,weatherlink.com 1.10,2013-02-25 09:44:00,
2013-02-25 04:59:00,32.8,32.0,29.91,NNW,335,8.0,18.0,96,0.00,,,0.16,weatherlink.com 1.10,2013-02-25 09:59:00,
2013-02-25 05:14:00,32.8,32.0,29.91,NW,316,9.0,15.0,95,0.00,,,0.16,weatherlink.com 1.10,2013-02-25 10:14:00,
2013-02-25 05:29:00,32.7,32.0,29.92,North,356,11.0,14.0,95,0.00,,,0.16,weatherlink.com 1.10,2013-02-25 10:29:00,
2013-02-25 05:44:00,32.6,31.0,29.93,WNW,299,8.0,12.0,95,0.00,,,0.16,weatherlink.com 1.10,2013-02-25 10:44:00,
2013-02-25 05:59:00,32.5,31.0,29.94,NNW,330,5.0,10.0,95,0.00,,,0.16,weatherlink.com 1.10,2013-02-25 10:59:00,
2013-02-25 06:14:00,32.4,31.0,29.95,NW,325,7.0,11.0,95,0.00,,,0.16,weatherlink.com 1.10,2013-02-25 11:14:00,
2013-02-25 06:29:00,32.4,31.0,29.95,NW,311,6.0,13.0,95,0.00,,,0.16,weatherlink.com 1.10,2013-02-25 11:29:00,
2013-02-25 06:44:00,32.4,31.0,29.96,NW,314,8.0,16.0,94,0.00,,,0.16,weatherlink.com 1.10,2013-02-25 11:44:00,
2013-02-25 06:59:00,32.5,31.0,29.96,NW,321,9.0,16.0,93,0.00,,,0.16,weatherlink.com 1.10,2013-02-25 11:59:00,
2013-02-25 07:14:00,32.5,31.0,29.96,NNW,340,9.0,13.0,94,0.00,,,0.16,weatherlink.com 1.10,2013-02-25 12:14:00,
2013-02-25 07:29:00,32.8,31.0,29.97,NNW,347,8.0,13.0,93,0.00,,,0.16,weatherlink.com 1.10,2013-02-25 12:29:00,
2013-02-25 07:44:00,32.9,31.0,29.97,NNW,335,10.0,13.0,94,0.00,,,0.16,weatherlink.com 1.10,2013-02-25 12:44:00,
2013-02-25 07:59:00,32.9,31.0,29.97,NW,314,9.0,15.0,93,0.00,,,0.16,weatherlink.com 1.10,2013-02-25 12:59:00,
2013-02-25 08:14:00,33.0,31.0,29.98,NNW,341,10.0,12.0,93,0.00,,,0.16,weatherlink.com 1.10,2013-02-25 13:14:00,
2013-02-25 08:29:00,33.1,31.0,29.98,NW,306,9.0,13.0,93,0.00,,,0.16,weatherlink.com 1.10,2013-02-25 13:29:00,
2013-02-25 08:44:00,33.1,31.0,29.99,NW,323,7.0,12.0,93,0.00,,,0.16,weatherlink.com 1.10,2013-02-25 13:44:00,
2013-02-25 08:59:00,33.1,32.0,29.99,NNW,341,9.0,12.0,94,0.00,,,0.16,weatherlink.com 1.10,2013-02-25 13:59:00,
2013-02-25 09:14:00,33.2,32.0,30.00,NW,323,9.0,13.0,94,0.00,,,0.16,weatherlink.com 1.10,2013-02-25 14:14:00,
2013-02-25 09:29:00,33.5,32.0,30.02,NNW,347,6.0,11.0,94,0.00,,,0.16,weatherlink.com 1.10,2013-02-25 14:29:00,
2013-02-25 09:44:00,33.8,32.0,30.01,NNW,333,9.0,12.0,94,0.00,,,0.16,weatherlink.com 1.10,2013-02-25 14:44:00,
2013-02-25 09:59:00,34.1,32.0,30.02,NW,314,7.0,12.0,93,0.00,,,0.16,weatherlink.com 1.10,2013-02-25 14:59:00,
2013-02-25 10:14:00,34.5,33.0,30.02,NW,323,9.0,11.0,93,0.00,,,0.00,weatherlink.com 1.10,2013-02-25 15:14:00,
2013-02-25 10:29:00,35.0,33.0,30.03,NNW,348,7.0,14.0,91,0.00,,,0.00,weatherlink.com 1.10,2013-02-25 15:29:00,
2013-02-25 10:44:00,35.3,32.0,30.03,North,360,11.0,15.0,89,0.00,,,0.00,weatherlink.com 1.10,2013-02-25 15:44:00,
2013-02-25 10:59:00,35.6,32.0,30.03,North,352,15.0,15.0,88,0.01,,,0.01,weatherlink.com 1.10,2013-02-25 15:59:00,
2013-02-25 11:14:00,36.1,33.0,30.03,NNE,16,9.0,15.0,87,0.01,,,0.01,weatherlink.com 1.10,2013-02-25 16:14:00,
2013-02-25 11:29:00,36.6,33.0,30.03,North,351,9.0,15.0,85,0.01,,,0.01,weatherlink.com 1.10,2013-02-25 16:29:00,
2013-02-25 11:45:00,36.9,32.0,30.03,NNW,343,10.0,15.0,83,0.00,,,0.01,weatherlink.com 1.10,2013-02-25 16:45:00,
2013-02-25 12:00:00,37.2,31.0,30.04,North,10,8.0,14.0,79,0.00,,,0.01,weatherlink.com 1.10,2013-02-25 17:00:00,
2013-02-25 12:15:00,37.3,31.0,30.05,NNE,13,8.0,11.0,78,0.00,,,0.01,weatherlink.com 1.10,2013-02-25 17:15:00,
2013-02-25 12:30:00,37.4,30.0,30.05,North,10,7.0,12.0,74,0.00,,,0.01,weatherlink.com 1.10,2013-02-25 17:30:00,
2013-02-25 12:45:00,37.6,30.0,30.05,NNE,27,12.0,12.0,74,0.00,,,0.01,weatherlink.com 1.10,2013-02-25 17:45:00,
2013-02-25 13:00:00,37.7,30.0,30.05,NNW,341,6.0,12.0,74,0.00,,,0.01,weatherlink.com 1.10,2013-02-25 18:00:00,
2013-02-25 13:15:00,38.0,30.0,30.05,NNW,344,5.0,11.0,74,0.00,,,0.01,weatherlink.com 1.10,2013-02-25 18:15:00,
2013-02-25 13:30:00,38.3,31.0,30.06,North,356,7.0,12.0,75,0.00,,,0.01,weatherlink.com 1.10,2013-02-25 18:30:00,
2013-02-25 13:45:00,38.3,31.0,30.05,NNE,23,12.0,12.0,74,0.00,,,0.01,weatherlink.com 1.10,2013-02-25 18:45:00,
2013-02-25 14:00:00,38.2,31.0,30.05,North,349,8.0,10.0,76,0.00,,,0.01,weatherlink.com 1.10,2013-02-25 19:00:00,
2013-02-25 14:15:00,38.3,31.0,30.06,NNE,25,9.0,10.0,75,0.00,,,0.01,weatherlink.com 1.10,2013-02-25 19:15:00,
2013-02-25 14:30:00,38.8,30.0,30.07,NNW,331,8.0,11.0,72,0.00,,,0.01,weatherlink.com 1.10,2013-02-25 19:30:00,
2013-02-25 14:45:00,38.5,31.0,30.07,NNE,20,9.0,10.0,73,0.00,,,0.01,weatherlink.com 1.10,2013-02-25 19:45:00,
2013-02-25 15:00:00,38.0,31.0,30.07,NNE,18,8.0,10.0,76,0.00,,,0.01,weatherlink.com 1.10,2013-02-25 20:00:00,
2013-02-25 15:15:00,38.2,31.0,30.09,NE,39,7.0,10.0,76,0.00,,,0.01,weatherlink.com 1.10,2013-02-25 20:15:00,
2013-02-25 15:30:00,38.3,31.0,30.09,NNE,30,8.0,8.0,76,0.00,,,0.01,weatherlink.com 1.10,2013-02-25 20:30:00,
2013-02-25 15:45:00,38.0,31.0,30.09,NNE,28,10.0,11.0,75,0.00,,,0.01,weatherlink.com 1.10,2013-02-25 20:45:00,
2013-02-25 16:00:00,38.0,31.0,30.10,NE,50,8.0,11.0,75,0.00,,,0.01,weatherlink.com 1.10,2013-02-25 21:00:00,
2013-02-25 16:15:00,37.9,31.0,30.10,NE,50,10.0,13.0,75,0.00,,,0.01,weatherlink.com 1.10,2013-02-25 21:15:00,
2013-02-25 16:30:00,37.4,30.0,30.11,NE,44,11.0,12.0,76,0.00,,,0.01,weatherlink.com 1.10,2013-02-25 21:30:00,
2013-02-25 16:45:00,37.1,31.0,30.12,NNE,29,8.0,11.0,77,0.00,,,0.01,weatherlink.com 1.10,2013-02-25 21:45:00,
2013-02-25 17:00:00,36.9,30.0,30.12,NE,49,9.0,12.0,77,0.00,,,0.01,weatherlink.com 1.10,2013-02-25 22:00:00,
2013-02-25 17:15:00,36.7,31.0,30.12,NE,41,11.0,12.0,79,0.00,,,0.01,weatherlink.com 1.10,2013-02-25 22:15:00,
2013-02-25 17:30:00,36.6,31.0,30.12,NNE,29,8.0,12.0,80,0.00,,,0.01,weatherlink.com 1.10,2013-02-25 22:30:00,
2013-02-25 18:00:00,36.3,31.0,30.14,NE,41,5.0,10.0,81,0.00,,,0.01,weatherlink.com 1.10,2013-02-25 23:00:00,
2013-02-25 18:15:00,36.3,31.0,30.14,ENE,58,6.0,10.0,82,0.00,,,0.01,weatherlink.com 1.10,2013-02-25 23:15:00,
2013-02-25 18:30:00,36.2,32.0,30.13,NE,51,10.0,11.0,84,0.00,,,0.01,weatherlink.com 1.10,2013-02-25 23:30:00,
2013-02-25 18:45:00,36.1,32.0,30.13,NE,39,6.0,10.0,84,0.00,,,0.01,weatherlink.com 1.10,2013-02-25 23:45:00,
2013-02-25 19:00:00,36.0,32.0,30.14,NE,53,6.0,9.0,85,0.00,,,0.01,weatherlink.com 1.10,2013-02-26 00:00:00,
2013-02-25 19:15:00,36.0,32.0,30.15,NE,41,5.0,7.0,85,0.00,,,0.01,weatherlink.com 1.10,2013-02-26 00:15:00,
2013-02-25 19:30:00,35.9,32.0,30.16,NNE,18,3.0,5.0,86,0.00,,,0.01,weatherlink.com 1.10,2013-02-26 00:30:00,
2013-02-25 19:45:00,35.1,31.0,30.18,WNW,301,1.0,4.0,86,0.00,,,0.01,weatherlink.com 1.10,2013-02-26 00:45:00,
2013-02-25 20:00:00,34.7,31.0,30.18,NW,316,2.0,3.0,87,0.00,,,0.01,weatherlink.com 1.10,2013-02-26 01:00:00,
2013-02-25 20:15:00,34.2,31.0,30.19,NW,323,1.0,2.0,88,0.00,,,0.01,weatherlink.com 1.10,2013-02-26 01:15:00,
2013-02-25 20:31:00,34.0,31.0,30.19,WNW,301,1.0,2.0,89,0.00,,,0.01,weatherlink.com 1.10,2013-02-26 01:31:00,
2013-02-25 20:46:00,34.0,31.0,30.19,WNW,301,1.0,1.0,90,0.00,,,0.01,weatherlink.com 1.10,2013-02-26 01:46:00,
2013-02-25 21:01:00,33.8,31.0,30.19,NW,314,0.0,1.0,90,0.00,,,0.01,weatherlink.com 1.10,2013-02-26 02:01:00,
2013-02-25 21:16:00,32.9,30.0,30.19,NW,314,0.0,0.0,90,0.00,,,0.01,weatherlink.com 1.10,2013-02-26 02:16:00,
2013-02-25 21:31:00,32.0,30.0,30.19,NW,314,0.0,0.0,92,0.00,,,0.01,weatherlink.com 1.10,2013-02-26 02:31:00,
2013-02-25 21:46:00,31.8,30.0,30.19,NW,314,0.0,0.0,92,0.00,,,0.01,weatherlink.com 1.10,2013-02-26 02:46:00,
2013-02-25 22:01:00,30.9,29.0,30.19,NW,314,0.0,0.0,93,0.00,,,0.01,weatherlink.com 1.10,2013-02-26 03:01:00,
2013-02-25 22:16:00,30.4,29.0,30.19,NW,315,0.0,0.0,93,0.00,,,0.01,weatherlink.com 1.10,2013-02-26 03:16:00,
2013-02-25 22:31:00,30.9,29.0,30.19,West,271,0.0,0.0,94,0.00,,,0.01,weatherlink.com 1.10,2013-02-26 03:31:00,
2013-02-25 22:46:00,30.3,29.0,30.19,West,271,0.0,0.0,94,0.00,,,0.01,weatherlink.com 1.10,2013-02-26 03:46:00,
2013-02-25 23:01:00,30.3,29.0,30.20,West,271,0.0,0.0,94,0.00,,,0.01,weatherlink.com 1.10,2013-02-26 04:01:00,
2013-02-25 23:16:00,29.8,28.0,30.19,West,271,0.0,0.0,94,0.00,,,0.01,weatherlink.com 1.10,2013-02-26 04:16:00,
2013-02-25 23:31:00,29.8,29.0,30.20,West,271,0.0,0.0,95,0.00,,,0.01,weatherlink.com 1.10,2013-02-26 04:31:00,
2013-02-25 23:46:00,29.5,28.0,30.20,West,271,0.0,0.0,95,0.00,,,0.01,weatherlink.com 1.10,2013-02-26 04:46:00,